DRRN/NIM METAR and TAF weather

Enter ICAO airport designator
Station Type Date Time Source
DRRN METAR 2019/04/19 22:00 UTC NOAA

DRRN 192200Z 09002KT 5000 DU NSC 34/M06 Q1010 NOSIG


Station Type Date Time Source
DRRN Decoded METAR 2019/04/19 22:00 UTC NOAA

Niamey-Aero, Niger (DRRN) 13-29N 002-10E 227M
Apr 19, 2019 - 06:00 PM EDT / 2019.04.19 2200 UTC
Wind: from the E (090 degrees) at 2 MPH (2 KT):0
Visibility: 3 mile(s):0
Weather: widespread dust
Temperature: 93 F (34 C)
Dew Point: 21 F (-6 C)
Relative Humidity: 7%
Pressure (altimeter): 29.83 in. Hg (1010 hPa)
ob: DRRN 192200Z 09002KT 5000 DU NSC 34/M06 Q1010 NOSIG
cycle: 22

Station Type Date Time Source
DRRN TAF 2019/04/19 18:22 UTC NOAA

TAF DRRN 191700Z 1918/2024 08008KT 5000 DU NSC
TEMPO 1918/1921 2500
TEMPO 2006/2010 2500

Example: see airport list